Salter Path, North Carolina
Current Conditions -  °F | °C
As of 5:57 AM on Friday 31 Oct 2014 (Local Time) from KNJM Reporting Station
Broken Clouds Broken Clouds  
Wind Chill: 55°   Ceiling: 6000
Heat Index: 55°   Visibility: 10mi
Dew Point: 48°   Wind: 8mph
Humidity: 77%   Direction: 20°NNE
Pressure: 29.89"   Gusts: NA
Location:  34.69°N, 76.89°W
Report Text: KNJM 310957Z AUTO 02007KT 10SM BKN060 13/09 A2989 RMK AO2 SLP125 T01280089 TSNO $
Loading
Personal Weather Stations






























Interactive Weather Map
Tropical Storm Tracking
New forecast layout! Learn more

10-Day Weather Forecast

Advertisements
Track Severe Weather on mobile